Terminal Aerodrome Forecast
Issued by NWS

Home | Current Version | Previous Version | Text Only | Print | Product List | Glossary On
Versions: 1 2 3 4 5 6 7 8 9 10 11 12 13 14 15 16 17 18
000
FTUS45 KSLC 131921 AAA
TAFPVU
TAF AMD
KPVU 131921Z 1319/1418 29004KT 3SM BR BKN120
      TEMPO 1319/1323 2SM BR BKN003
     FM132300 32006KT P6SM SCT005 BKN120
     FM140800 VRB03KT 2SM BR PRFG OVC004=

USA.gov is the U.S. government's official web portal to all federal, state and local government web resources and services.